| time (UTC) | temp F | wind direction | speed MPH | gust MPH | rain 1hr in | rain 24hr in | rain mn in | humidity % | barometer mb |
| 20260505205048 | 48 | 0 | 0.0 | 0.0 | 0.06 | 0.20 | 0.20 | 10 | 1010.0 |
| 20260505203048 | 48 | 0 | 0.0 | 0.0 | 0.06 | 0.18 | 0.18 | 10 | 1010.0 |
| 20260505202049 | 48 | 0 | 0.0 | 0.0 | 0.06 | 0.17 | 0.17 | 10 | 1010.0 |
| 20260505201054 | 49 | 0 | 0.0 | 0.0 | 0.06 | 0.17 | 0.17 | 10 | 1009.9 |
| 20260505195047 | 48 | 0 | 0.0 | 0.0 | 0.06 | 0.15 | 0.15 | 10 | 1009.9 |
| 20260505194050 | 48 | 0 | 0.0 | 0.0 | 0.07 | 0.14 | 0.14 | 10 | 1009.8 |
| 20260505193050 | 48 | 0 | 0.0 | 0.0 | 0.07 | 0.13 | 0.13 | 10 | 1009.7 |
| 20260505192048 | 49 | 0 | 0.0 | 0.0 | 0.06 | 0.13 | 0.13 | 10 | 1009.7 |
| 20260505191050 | 49 | 0 | 0.0 | 0.0 | 0.06 | 0.11 | 0.11 | 10 | 1009.7 |
| 20260505190050 | 49 | 0 | 0.0 | 0.0 | 0.06 | 0.10 | 0.10 | 10 | 1009.7 |
| 20260505185050 | 49 | 0 | 0.0 | 0.0 | 0.06 | 0.09 | 0.09 | 10 | 1009.6 |
| 20260505184048 | 49 | 0 | 0.0 | 0.0 | 0.06 | 0.09 | 0.09 | 10 | 1009.6 |
| 20260505182048 | 49 | 0 | 0.0 | 0.0 | 0.04 | 0.06 | 0.06 | 10 | 1009.6 |
| 20260505181048 | 49 | 0 | 0.0 | 0.0 | 0.04 | 0.06 | 0.06 | 10 | 1009.6 |
| 20260505180048 | 50 | 0 | 0.0 | 0.0 | 0.04 | 0.06 | 0.06 | 10 | 1009.7 |
| 20260505175047 | 50 | 0 | 0.0 | 0.0 | 0.03 | 0.05 | 0.05 | 10 | 1009.7 |
| 20260505173048 | 50 | 0 | 0.0 | 0.0 | 0.02 | 0.03 | 0.03 | 10 | 1009.7 |
| 20260505172046 | 50 | 0 | 0.0 | 0.0 | 0.02 | 0.02 | 0.02 | 10 | 1009.7 |
| 20260505171046 | 50 | 0 | 0.0 | 0.0 | 0.02 | 0.02 | 0.02 | 10 | 1009.7 |
| 20260505165053 | 50 | 0 | 0.0 | 0.0 | 0.01 | 0.02 | 0.02 | 10 | 1009.8 |
| 20260505163050 | 50 | 0 | 0.0 | 0.0 | 0.01 | 0.02 | 0.02 | 10 | 1009.8 |
| 20260505162046 | 50 | 0 | 0.0 | 0.0 | 0.00 | 0.02 | 0.01 | 10 | 1009.8 |
| 20260505153048 | 51 | 0 | 0.0 | 0.0 | 0.00 | 0.02 | 0.01 | 10 | 1009.9 |
| 20260505152047 | 51 | 0 | 0.0 | 0.0 | 0.00 | 0.02 | 0.01 | 10 | 1009.9 |
| 20260505151044 | 51 | 0 | 0.0 | 0.0 | 0.00 | 0.02 | 0.01 | 10 | 1010.0 |
| 20260505124047 | 52 | 0 | 0.0 | 0.0 | 0.00 | 0.07 | 0.00 | 10 | 1010.6 |
| 20260505123045 | 53 | 0 | 0.0 | 0.0 | 0.00 | 0.07 | 0.00 | 10 | 1010.6 |
| 20260505121044 | 53 | 0 | 0.0 | 0.0 | 0.00 | 0.07 | 0.00 | 10 | 1010.6 |
| 20260505120045 | 53 | 0 | 0.0 | 0.0 | 0.00 | 0.07 | 0.00 | 10 | 1010.6 |
| 20260505114048 | 53 | 0 | 0.0 | 0.0 | 0.00 | 0.07 | 0.00 | 10 | 1010.7 |
| 20260505113047 | 53 | 0 | 0.0 | 0.0 | 0.00 | 0.07 | 0.00 | 10 | 1010.7 |
| 20260505112046 | 53 | 0 | 0.0 | 0.0 | 0.00 | 0.07 | 0.00 | 99 | 1010.7 |
| 20260505111046 | 54 | 0 | 0.0 | 0.0 | 0.00 | 0.07 | 0.00 | 99 | 1010.8 |
| 20260505102057 | 54 | 0 | 0.0 | 0.0 | 0.00 | 0.07 | 0.00 | 99 | 1011.0 |
| 20260505100044 | 54 | 0 | 0.0 | 0.0 | 0.00 | 0.07 | 0.00 | 99 | 1011.0 |
| 20260505095046 | 54 | 0 | 0.0 | 0.0 | 0.00 | 0.07 | 0.00 | 98 | 1011.0 |
| 20260505094044 | 54 | 0 | 0.0 | 0.0 | 0.00 | 0.07 | 0.00 | 97 | 1011.0 |
| 20260505093047 | 56 | 0 | 0.0 | 0.0 | 0.00 | 0.07 | 0.00 | 93 | 1010.9 |
| 20260505092044 | 57 | 0 | 0.0 | 0.0 | 0.00 | 0.07 | 0.00 | 92 | 1010.9 |
| 20260505091047 | 56 | 0 | 0.0 | 0.0 | 0.00 | 0.07 | 0.00 | 91 | 1010.9 |
| 20260505090047 | 57 | 0 | 0.0 | 0.0 | 0.00 | 0.07 | 0.00 | 92 | 1010.9 |
| 20260505085045 | 56 | 0 | 0.0 | 0.0 | 0.00 | 0.07 | 0.00 | 92 | 1010.9 |
| 20260505084047 | 56 | 0 | 0.0 | 0.0 | 0.00 | 0.07 | 0.00 | 92 | 1011.0 |
| 20260505082048 | 56 | 0 | 0.0 | 0.0 | 0.00 | 0.07 | 0.00 | 93 | 1011.0 |
| 20260505080044 | 55 | 0 | 0.0 | 0.0 | 0.00 | 0.07 | 0.00 | 94 | 1011.1 |
| 20260505074046 | 55 | 0 | 0.0 | 0.0 | 0.00 | 0.07 | 0.00 | 96 | 1011.2 |
| 20260505073045 | 54 | 0 | 0.0 | 0.0 | 0.00 | 0.07 | 0.00 | 98 | 1011.2 |
| 20260505072045 | 54 | 0 | 0.0 | 0.0 | 0.00 | 0.07 | 0.00 | 10 | 1011.3 |
| 20260505071046 | 53 | 0 | 0.0 | 0.0 | 0.00 | 0.07 | 0.00 | 10 | 1011.4 |
| 20260505070042 | 53 | 0 | 0.0 | 0.0 | 0.00 | 0.07 | 0.00 | 10 | 1011.4 |
| 20260505065046 | 53 | 0 | 0.0 | 0.0 | 0.00 | 0.07 | 0.00 | 10 | 1011.6 |
| 20260505064043 | 53 | 0 | 0.0 | 0.0 | 0.00 | 0.07 | 0.00 | 10 | 1011.6 |
| 20260505063043 | 52 | 0 | 0.0 | 0.0 | 0.00 | 0.07 | 0.00 | 10 | 1011.6 |
| 20260505061044 | 52 | 0 | 0.0 | 0.0 | 0.00 | 0.07 | 0.00 | 10 | 1011.6 |
| 20260505060046 | 52 | 0 | 0.0 | 0.0 | 0.00 | 0.07 | 0.00 | 10 | 1011.7 |
| 20260505055045 | 51 | 0 | 0.0 | 0.0 | 0.00 | 0.07 | 0.00 | 10 | 1011.7 |
| 20260505054046 | 51 | 0 | 0.0 | 0.0 | 0.00 | 0.07 | 0.00 | 10 | 1011.8 |
| 20260505053045 | 51 | 0 | 0.0 | 0.0 | 0.00 | 0.07 | 0.00 | 10 | 1011.8 |
| 20260505052045 | 50 | 0 | 0.0 | 0.0 | 0.00 | 0.07 | 0.00 | 10 | 1011.7 |
| 20260505051049 | 50 | 0 | 0.0 | 0.0 | 0.00 | 0.07 | 0.00 | 10 | 1011.7 |
| 20260505041045 | 50 | 0 | 0.0 | 0.0 | 0.00 | 0.07 | 0.00 | 10 | 1011.7 |
| 20260505040045 | 50 | 0 | 0.0 | 0.0 | 0.00 | 0.07 | 0.00 | 10 | 1011.7 |
| 20260505034045 | 50 | 0 | 0.0 | 0.0 | 0.00 | 0.07 | 0.00 | 10 | 1011.9 |
| 20260505033048 | 50 | 0 | 0.0 | 0.0 | 0.00 | 0.07 | 0.00 | 10 | 1012.0 |
| 20260505032046 | 50 | 0 | 0.0 | 0.0 | 0.00 | 0.07 | 0.00 | 10 | 1012.1 |
| 20260505031046 | 50 | 0 | 0.0 | 0.0 | 0.00 | 0.07 | 0.00 | 10 | 1012.3 |
| 20260505030045 | 50 | 0 | 0.0 | 0.0 | 0.00 | 0.07 | 0.00 | 10 | 1012.3 |
| 20260505024047 | 50 | 0 | 0.0 | 0.0 | 0.00 | 0.07 | 0.00 | 10 | 1012.4 |
| 20260505023047 | 50 | 0 | 0.0 | 0.0 | 0.00 | 0.07 | 0.00 | 10 | 1012.4 |
| 20260505022045 | 50 | 0 | 0.0 | 0.0 | 0.00 | 0.07 | 0.00 | 10 | 1012.5 |
| 20260505021047 | 50 | 0 | 0.0 | 0.0 | 0.00 | 0.07 | 0.00 | 10 | 1012.6 |
| 20260505020047 | 50 | 0 | 0.0 | 0.0 | 0.00 | 0.07 | 0.00 | 10 | 1012.6 |
| 20260505015047 | 50 | 0 | 0.0 | 0.0 | 0.00 | 0.07 | 0.00 | 10 | 1012.6 |
| 20260505014046 | 50 | 0 | 0.0 | 0.0 | 0.00 | 0.07 | 0.00 | 10 | 1012.5 |
| 20260505012045 | 50 | 0 | 0.0 | 0.0 | 0.00 | 0.07 | 0.00 | 10 | 1012.5 |
| 20260505011045 | 51 | 0 | 0.0 | 0.0 | 0.00 | 0.07 | 0.00 | 10 | 1012.4 |
| 20260505010047 | 51 | 0 | 0.0 | 0.0 | 0.00 | 0.07 | 0.00 | 10 | 1012.6 |
| 20260505005047 | 51 | 0 | 0.0 | 0.0 | 0.00 | 0.07 | 0.00 | 10 | 1012.7 |
| 20260505004047 | 51 | 0 | 0.0 | 0.0 | 0.00 | 0.07 | 0.00 | 10 | 1012.8 |
| 20260505003045 | 52 | 0 | 0.0 | 0.0 | 0.00 | 0.07 | 0.00 | 10 | 1012.9 |
| 20260505001047 | 51 | 0 | 0.0 | 0.0 | 0.00 | 0.07 | 0.00 | 10 | 1013.1 |
| 20260505000046 | 51 | 0 | 0.0 | 0.0 | 0.00 | 0.07 | 0.00 | 10 | 1013.1 |
| 20260504235048 | 52 | 0 | 0.0 | 0.0 | 0.00 | 0.07 | 0.00 | 99 | 1013.1 |
| 20260504234048 | 52 | 0 | 0.0 | 0.0 | 0.00 | 0.07 | 0.00 | 99 | 1013.2 |
| 20260504233046 | 52 | 0 | 0.0 | 0.0 | 0.00 | 0.07 | 0.00 | 99 | 1013.3 |
| 20260504232047 | 52 | 0 | 0.0 | 0.0 | 0.00 | 0.07 | 0.00 | 99 | 1013.3 |
| 20260504231050 | 52 | 0 | 0.0 | 0.0 | 0.00 | 0.07 | 0.00 | 99 | 1013.5 |
| 20260504224049 | 52 | 0 | 0.0 | 0.0 | 0.00 | 0.07 | 0.00 | 98 | 1013.7 |
| 20260504223047 | 52 | 0 | 0.0 | 0.0 | 0.00 | 0.07 | 0.00 | 98 | 1013.8 |
| 20260504222050 | 52 | 0 | 0.0 | 0.0 | 0.00 | 0.07 | 0.00 | 98 | 1013.8 |
| 20260504221050 | 52 | 0 | 0.0 | 0.0 | 0.00 | 0.07 | 0.00 | 98 | 1013.9 |
| 20260504220047 | 52 | 0 | 0.0 | 0.0 | 0.00 | 0.07 | 0.00 | 99 | 1014.0 |
| 20260504215051 | 52 | 0 | 0.0 | 0.0 | 0.00 | 0.07 | 0.07 | 99 | 1014.1 |
| 20260504214050 | 52 | 0 | 0.0 | 0.0 | 0.00 | 0.07 | 0.07 | 99 | 1014.2 |
| 20260504213046 | 52 | 0 | 0.0 | 0.0 | 0.00 | 0.07 | 0.07 | 99 | 1014.2 |
| 20260504212047 | 52 | 0 | 0.0 | 0.0 | 0.00 | 0.07 | 0.07 | 99 | 1014.3 |
| 20260504211049 | 53 | 0 | 0.0 | 0.0 | 0.00 | 0.07 | 0.07 | 99 | 1014.3 |
| 20260504210049 | 53 | 0 | 0.0 | 0.0 | 0.00 | 0.07 | 0.07 | 99 | 1014.4 |